Flight Track Log - Related Links

Times and Time Zones

All times are in EDT time to prevent confusion due to time zone crossing. See the N42HN flight status page for this flight to view local times or setup timezone preferences in your user account.

Time Position Orientation Groundspeed Altitude Reporting Facility
EDT Latitude Longitude Course Direction KTS MPH feet Rate Location/Type
Fri 05:50:08 PM 45.4739 -98.5919 272° West 242 278 7,200  Level Minneapolis Center
Fri 05:51:10 PM 45.4781 -98.6992 273° West 254 292 10,600 3,048 Climbing Minneapolis Center
Fri 05:52:00 PM 45.4892 -99.3414 273° West  Level FlightAware Approximate
Fri 05:52:12 PM 45.4886 -98.8178 277° West 275 316 13,500  Level Minneapolis Center
Fri 05:53:00 PM 45.4947 -99.4949 273° West  Level FlightAware Approximate
Fri 05:53:14 PM 45.4942 -98.9653 273° West 303 349 17,000  Level Minneapolis Center
Fri 05:54:00 PM 45.4999 -99.6484 273° West  Level FlightAware Approximate
Fri 05:54:16 PM 45.5006 -99.0892 274° West 310 357 19,500  Level Minneapolis Center
Fri 05:55:18 PM 45.5081 -99.2142 275° West 315 362 21,900 2,129 Climbing Minneapolis Center
Fri 05:56:20 PM 45.5139 -99.3422 274° West 320 368 23,900 1,839 Climbing Minneapolis Center
Fri 05:57:22 PM 45.5211 -99.4714 275° West 324 373 25,700 1,548 Climbing Minneapolis Center
Fri 05:58:24 PM 45.5256 -99.6019 273° West 328 377 27,100 1,258 Climbing Minneapolis Center
Fri 05:59:26 PM 45.5336 -99.7672 274° West 339 390 28,300 1,065 Climbing Minneapolis Center
Fri 06:00:28 PM 45.5411 -99.9103 274° West 356 410 29,300 1,016 Climbing Minneapolis Center
Fri 06:01:30 PM 45.5458 -100.0558 273° West 367 422 30,400 968 Climbing Minneapolis Center
Fri 06:02:32 PM 45.5517 -100.2031 273° West 372 428 31,300 1,113 Climbing Minneapolis Center
Fri 06:03:34 PM 45.5594 -100.3481 274° West 371 427 32,700 1,500 Climbing Minneapolis Center
Fri 06:04:36 PM 45.5644 -100.5181 272° West 360 414 34,400 1,258 Climbing Minneapolis Center
Fri 06:05:38 PM 45.5703 -100.6567 273° West 352 405 35,300 871 Climbing Minneapolis Center
Fri 06:06:40 PM 45.5733 -100.7958 272° West 352 405 36,200 919 Climbing Minneapolis Center
Fri 06:07:42 PM 45.5786 -100.9367 273° West 354 407 37,200 976 Climbing Minneapolis Center
Fri 06:08:43 PM 45.5833 -101.0753 273° West 353 406 38,200 780 Climbing Minneapolis Center
Fri 06:09:45 PM 45.5886 -101.2131 273° West 350 403 38,800 629 Climbing Minneapolis Center
Fri 06:10:47 PM 45.5953 -101.3775 273° West 347 399 39,500 581 Climbing Minneapolis Center
Fri 06:11:49 PM 45.5986 -101.5164 272° West 348 400 40,000 242 Climbing Minneapolis Center
Fri 06:12:51 PM 45.6039 -101.6578 273° West 354 407 40,000  Level Minneapolis Center
Fri 06:13:53 PM 45.6081 -101.8008 272° West 359 413 40,000  Level Minneapolis Center
Fri 06:14:56 PM 45.6106 -101.9469 271° West 365 420 40,000  Level Minneapolis Center
Fri 06:15:58 PM 45.6142 -102.0908 272° West 365 420 40,000  Level Minneapolis Center
Fri 06:17:00 PM 45.6175 -102.2650 272° West 366 421 40,000  Level Minneapolis Center
Fri 06:18:02 PM 45.6203 -102.4122 272° West 369 425 40,000  Level Minneapolis Center
Fri 06:19:04 PM 45.6233 -102.5583 272° West 370 426 40,000  Level Minneapolis Center
Fri 06:20:06 PM 45.6267 -102.7181 272° West 372 428 40,000  Level Minneapolis Center
Fri 06:21:08 PM 45.6289 -102.8644 271° West 372 428 40,000  Level Minneapolis Center
Fri 06:22:10 PM 45.6306 -103.0108 271° West 370 426 40,000  Level Minneapolis Center
Fri 06:23:12 PM 45.6331 -103.1569 271° West 369 425 40,000  Level Minneapolis Center
Fri 06:24:14 PM 45.6347 -103.3031 271° West 370 426 40,000  Level Minneapolis Center
Fri 06:25:05 PM 45.6331 -103.4203 269° West 369 425 40,000  Level Salt Lake Center
Fri 06:26:06 PM 45.6358 -103.5933 271° West 366 421 40,000  Level Salt Lake Center
Fri 06:27:08 PM 45.6364 -103.7381 270° West 365 420 40,000  Level Salt Lake Center
Fri 06:28:10 PM 45.6378 -103.8831 271° West 366 421 40,000  Level Salt Lake Center
Fri 06:29:12 PM 45.6392 -104.0275 271° West 365 420 40,000  Level Salt Lake Center
Fri 06:30:13 PM 45.6397 -104.1728 270° West 366 421 40,000  Level Salt Lake Center
Fri 06:31:15 PM 45.6408 -104.3186 271° West 366 421 40,000  Level Salt Lake Center
Fri 06:32:17 PM 45.6408 -104.4686 270° West 372 428 40,000  Level Salt Lake Center
Fri 06:33:19 PM 45.6406 -104.6436 270° West 370 426 40,000  Level Salt Lake Center
Fri 06:34:21 PM 45.6417 -104.7914 271° West 371 427 40,000  Level Salt Lake Center
Fri 06:35:22 PM 45.6411 -104.9383 270° West 371 427 40,000  Level Salt Lake Center
Fri 06:36:24 PM 45.6417 -105.0836 270° West 369 425 40,000  Level Salt Lake Center
Fri 06:37:26 PM 45.6392 -105.2272 269° West 365 420 40,000  Level Salt Lake Center
Fri 06:38:28 PM 45.6403 -105.3747 271° West 369 425 40,000  Level Salt Lake Center
Fri 06:39:29 PM 45.6381 -105.5194 269° West 368 423 40,000  Level Salt Lake Center
Fri 06:40:31 PM 45.6378 -105.6922 270° West 364 419 40,000  Level Salt Lake Center
Fri 06:41:33 PM 45.6356 -105.8356 269° West 363 418 40,000  Level Salt Lake Center
Fri 06:42:35 PM 45.6353 -105.9828 270° West 367 422 40,000  Level Salt Lake Center
Fri 06:43:36 PM 45.6331 -106.1289 269° West 369 425 40,000  Level Salt Lake Center
Fri 06:44:38 PM 45.6308 -106.2775 269° West 372 428 40,000  Level Salt Lake Center
Fri 06:45:40 PM 45.6292 -106.4228 269° West 370 426 40,000  Level Salt Lake Center
Fri 06:46:42 PM 45.6261 -106.5669 268° West 367 422 40,000  Level Salt Lake Center
Fri 06:47:44 PM 45.6192 -106.7394 267° West 366 421 40,000  Level Salt Lake Center
Fri 06:48:45 PM 45.6175 -106.8861 269° West 366 421 40,000  Level Salt Lake Center
Fri 06:49:47 PM 45.6175 -107.0372 270° West 370 426 40,000  Level Salt Lake Center
Fri 06:50:49 PM 45.6139 -107.1956 268° West 370 426 40,000  Level Salt Lake Center
Fri 06:51:51 PM 45.6111 -107.3403 268° West 370 426 40,000  Level Salt Lake Center
Fri 06:52:53 PM 45.6069 -107.4967 268° West 369 425 40,000  Level Salt Lake Center
Fri 06:53:54 PM 45.6039 -107.6425 268° West 369 425 40,000  Level Salt Lake Center
Fri 06:54:56 PM 45.5997 -107.7994 268° West 371 427 40,000  Level Salt Lake Center
Fri 06:55:58 PM 45.5953 -107.9433 268° West 369 425 40,000  Level Salt Lake Center
Fri 06:57:00 PM 45.5908 -108.1008 268° West 369 425 40,000  Level Salt Lake Center
Fri 06:58:02 PM 45.5861 -108.2469 267° West 373 429 40,000  Level Salt Lake Center
Fri 06:59:03 PM 45.5811 -108.3942 267° West 374 430 40,000  Level Salt Lake Center
Fri 07:00:05 PM 45.5753 -108.5550 267° West 379 436 40,000  Level Salt Lake Center
Fri 07:01:07 PM 45.5717 -108.7047 268° West 380 437 40,000  Level Salt Lake Center
Fri 07:02:09 PM 45.5653 -108.8650 267° West 377 434 40,000  Level Salt Lake Center
Fri 07:03:10 PM 45.5611 -109.0117 268° West 373 429 40,000  Level Salt Lake Center
Fri 07:04:12 PM 45.5544 -109.1703 267° West 375 432 40,000  Level Salt Lake Center
Fri 07:05:14 PM 45.5500 -109.3175 268° West 376 433 40,000  Level Salt Lake Center
Fri 07:06:16 PM 45.5425 -109.4650 266° West 376 433 40,000  Level Salt Lake Center
Fri 07:07:18 PM 45.5372 -109.6233 267° West 375 432 40,000  Level Salt Lake Center
Fri 07:08:20 PM 45.5303 -109.7711 266° West 378 435 40,000  Level Salt Lake Center
Fri 07:09:21 PM 45.5233 -109.9328 267° West 378 435 40,000  Level Salt Lake Center
Fri 07:10:23 PM 45.5167 -110.0778 266° West 383 441 40,000  Level Salt Lake Center
Fri 07:11:25 PM 45.5086 -110.2436 266° West 378 435 40,000  Level Salt Lake Center
Fri 07:12:27 PM 45.5022 -110.3861 266° West 377 434 40,000  Level Salt Lake Center
Fri 07:13:29 PM 45.4928 -110.5494 265° West 374 430 40,000  Level Salt Lake Center
Fri 07:14:30 PM 45.4861 -110.6806 266° West 370 426 40,000  Level Salt Lake Center
Fri 07:15:32 PM 45.4789 -110.8289 266° West 372 428 40,000  Level Salt Lake Center
Fri 07:16:34 PM 45.4686 -110.9797 265° West 377 434 40,000  Level Salt Lake Center
Fri 07:17:36 PM 45.4606 -111.1314 266° West 380 437 40,000  Level Salt Lake Center
Fri 07:18:38 PM 45.4497 -111.3125 265° West 380 437 40,000  Level Salt Lake Center
Fri 07:19:40 PM 45.4433 -111.4619 267° West 377 434 40,000  Level Salt Lake Center
Fri 07:20:42 PM 45.4328 -111.6106 264° West 376 433 40,000  Level Salt Lake Center
Fri 07:21:43 PM 45.4250 -111.7608 266° West 378 435 40,000  Level Salt Lake Center
Fri 07:22:45 PM 45.4147 -111.9089 264° West 377 434 40,000  Level Salt Lake Center
Fri 07:23:47 PM 45.4067 -112.0608 266° West 383 441 40,000  Level Salt Lake Center
Fri 07:24:49 PM 45.3958 -112.2097 264° West 380 437 40,000  Level Salt Lake Center
Fri 07:25:51 PM 45.3861 -112.3611 265° West 382 440 40,000  Level Salt Lake Center
Fri 07:26:52 PM 45.3725 -112.5394 264° West 380 437 40,000  Level Salt Lake Center
Fri 07:27:54 PM 45.3633 -112.6897 265° West 380 437 40,000  Level Salt Lake Center
Fri 07:28:56 PM 45.3539 -112.8258 264° West 380 437 40,000  Level Salt Lake Center
Fri 07:29:58 PM 45.3411 -112.9933 264° West 382 440 40,000  Level Salt Lake Center
Fri 07:31:00 PM 45.3308 -113.1375 264° West 383 441 40,000  Level Salt Lake Center
Fri 07:32:01 PM 45.3178 -113.3047 264° West 382 440 40,000  Level Salt Lake Center
Fri 07:33:03 PM 45.3069 -113.4492 264° West 384 442 40,000  Level Salt Lake Center
Fri 07:34:05 PM 45.2944 -113.6164 264° West 382 440 40,000  Level Salt Lake Center
Fri 07:35:07 PM 45.2817 -113.7600 263° West 383 441 40,000  Level Salt Lake Center
Fri 07:36:09 PM 45.2706 -113.9022 264° West 380 437 40,000  Level Salt Lake Center
Fri 07:37:11 PM 45.2586 -114.0772 265° West 380 437 40,000  Level Salt Lake Center
Fri 07:38:13 PM 45.2456 -114.2214 263° West 384 442 40,000  Level Salt Lake Center
Fri 07:39:14 PM 45.2325 -114.3900 264° West 385 443 40,000  Level Salt Lake Center
Fri 07:40:16 PM 45.2192 -114.5331 263° West 384 442 40,000  Level Salt Lake Center
Fri 07:41:18 PM 45.2081 -114.6761 264° West 383 441 40,000  Level Salt Lake Center
Fri 07:42:20 PM 45.1922 -114.8433 262° West 384 442 40,000  Level Salt Lake Center
Fri 07:43:22 PM 45.1806 -114.9839 263° West 379 436 40,000  Level Salt Lake Center
Fri 07:44:24 PM 45.1650 -115.1508 263° West 383 441 40,000  Level Salt Lake Center
Fri 07:45:25 PM 45.1519 -115.2950 263° West 385 443 40,000  Level Salt Lake Center
Fri 07:46:27 PM 45.1364 -115.4617 263° West 383 441 40,000  Level Salt Lake Center
Fri 07:47:29 PM 45.1214 -115.6044 262° West 383 441 40,000  Level Salt Lake Center
Fri 07:48:31 PM 45.1064 -115.7719 263° West 385 443 40,000  Level Salt Lake Center
Fri 07:49:33 PM 45.0925 -115.9161 262° West 389 448 40,000  Level Salt Lake Center
Fri 07:50:34 PM 45.0761 -116.0825 262° West 386 444 40,000  Level Salt Lake Center
Fri 07:51:36 PM 45.0619 -116.2233 262° West 381 438 40,000  Level Salt Lake Center
Fri 07:52:38 PM 45.0472 -116.3653 262° West 382 440 40,000  Level Salt Lake Center
Fri 07:53:40 PM 45.0303 -116.5292 262° West 379 436 40,000  Level Salt Lake Center
Fri 07:54:41 PM 45.0158 -116.6700 262° West 379 436 40,000  Level Salt Lake Center
Fri 07:55:43 PM 44.9969 -116.8344 261° West 382 440 40,000  Level Salt Lake Center
Fri 07:56:58 PM 44.9775 -117.0242 262° West 382 440 40,000  Level Seattle Center
Fri 07:57:47 PM 44.9642 -117.1400 261° West 380 437 40,000  Level Salt Lake Center
Fri 07:58:49 PM 44.9497 -117.2794 262° West 377 434 40,000  Level Salt Lake Center
Fri 07:59:51 PM 44.9306 -117.4433 261° West 379 436 40,000  Level Salt Lake Center
Fri 08:00:52 PM 44.9147 -117.5861 261° West 383 441 40,000  Level Salt Lake Center
Fri 08:02:05 PM 44.8931 -117.7747 261° West 382 440 40,000  Level Seattle Center
Fri 08:03:06 PM 44.8753 -117.9142 260° West 379 436 40,000  Level Seattle Center
Fri 08:04:07 PM 44.8603 -118.0550 262° West 381 438 40,000  Level Seattle Center
Fri 08:04:59 PM 44.8419 -118.2014 260° West 383 441 40,000  Level Salt Lake Center
Fri 08:06:01 PM 44.8253 -118.3511 261° West 388 447 40,000  Level Salt Lake Center
Fri 08:07:03 PM 44.8061 -118.5011 260° West 389 448 40,000  Level Salt Lake Center
Fri 08:08:05 PM 44.7892 -118.6517 261° West 390 449 40,000  Level Salt Lake Center
Fri 08:09:13 PM 44.7653 -118.8306 259° West 389 448 40,000  Level Seattle Center
Fri 08:10:14 PM 44.7478 -118.9786 261° West 384 442 40,000  Level Seattle Center
Fri 08:11:15 PM 44.7283 -119.1261 260° West 383 441 40,000  Level Seattle Center
Fri 08:12:16 PM 44.7097 -119.2744 260° West 384 442 40,000  Level Seattle Center
Fri 08:13:17 PM 44.6906 -119.4236 260° West 385 443 40,000  Level Seattle Center
Fri 08:14:19 PM 44.6714 -119.5692 260° West 381 438 40,000  Level Seattle Center
Fri 08:15:20 PM 44.6517 -119.7161 259° West 381 438 40,000  Level Seattle Center
Fri 08:16:21 PM 44.6314 -119.8628 259° West 380 437 40,000  Level Seattle Center
Fri 08:17:22 PM 44.6114 -120.0097 259° West 380 437 40,000  Level Seattle Center
Fri 08:18:23 PM 44.5914 -120.1564 259° West 381 438 40,000  Level Seattle Center
Fri 08:19:24 PM 44.5703 -120.3008 258° West 379 436 40,000  Level Seattle Center
Fri 08:20:25 PM 44.5503 -120.4533 260° West 382 440 40,000  Level Seattle Center
Fri 08:21:27 PM 44.5300 -120.6000 259° West 383 441 40,000 -49 Level Seattle Center
Fri 08:22:28 PM 44.5089 -120.7467 259° West 385 443 39,900 -1,475 Descending Seattle Center
Fri 08:23:29 PM 44.4828 -120.9281 259° West 398 458 37,000 -2,754 Descending Seattle Center
Fri 08:24:30 PM 44.4622 -121.0844 260° West 412 474 34,300 -2,607 Descending Seattle Center
Fri 08:25:31 PM 44.4381 -121.2383 258° West 412 474 31,700 -2,656 Descending Seattle Center
Fri 08:26:32 PM 44.4142 -121.3931 258° West 414 476 28,900 -2,732 Descending Seattle Center
Fri 08:27:34 PM 44.3908 -121.5533 259° West 414 476 26,100 -2,829 Descending Seattle Center
Fri 08:28:35 PM 44.3667 -121.7089 258° West 411 473 23,100 -2,754 Descending Seattle Center
Fri 08:29:36 PM 44.3433 -121.8639 258° West 408 470 20,500 -2,754 Descending Seattle Center
Fri 08:30:37 PM 44.3178 -122.0339 258° West 389 448 17,500 -2,607 Descending Seattle Center
Fri 08:31:38 PM 44.2953 -122.1764 258° West 378 435 15,200 -2,293 Descending Seattle Center
Fri 08:32:40 PM 44.2731 -122.3183 258° West 376 433 12,800 -2,195 Descending Seattle Center
Fri 08:33:41 PM 44.2489 -122.4642 257° West 385 443 10,700 -1,377 Descending Seattle Center
Fri 08:34:42 PM 44.2300 -122.5836 258° West 311 358 10,000 -1,328 Descending Seattle Center
Fri 08:35:43 PM 44.2108 -122.6889 256° West 283 326 8,000 -1,770 Descending Seattle Center
Fri 08:36:44 PM 44.1956 -122.7928 258° West 277 319 6,400 -1,328 Descending Seattle Center
Fri 08:37:45 PM 44.1811 -122.8914 258° West 266 306 5,300 -738 Descending Seattle Center
Fri 08:38:46 PM 44.1836 -122.9867 272° West 250 288 4,900 -634 Descending Seattle Center
Fri 08:39:48 PM 44.1906 -123.0742 276° West 234 269 4,000 -878 Descending Seattle Center
Fri 08:40:49 PM 44.2039 -123.1486 284° West 207 238 3,100 -1,180 Descending Seattle Center
Fri 08:41:50 PM 44.1950 -123.2122 259° West 180 207 1,600 -1,131 Descending Seattle Center
Fri 08:42:51 PM 44.1550 -123.2192 187° South 148 170 800 -590 Descending Seattle Center
Fri 08:43:52 PM 44.1217 -123.2194 180° South 93 107 400 -197 Descending Seattle Center
Fri 08:44:53 PM 44.1183 -123.2156 140° Southeast 41 47 400  Level Seattle Center
Fri 08:46:00 PM 44.1167 -123.2000 North  Level FlightAware Approximate
Fri 08:53:00 PM 44.1246 -123.2120 North  Level Estimated

Login

Don't have an account? Register now (free) for customized features, flight alerts, and more!